Time;durP1;ratioP1;P1;durP2;ratioP2;P2;SDS_P1;SDS_P2;PMS_P1;PMS_P2;Temp;Humidity;BMP_temperature;BMP_pressure;BME280_temperature;BME280_humidity;BME280_pressure;Samples;Min_cycle;Max_cycle;Signal;HPM_P1;HPM_P2
2022/04/29 00:00:42;;;;;;;5.93;5.72;;;;;;;9.60;100.00;101535.03;5054751;28;20630;-64
2022/04/29 00:03:08;;;;;;;5.90;5.70;;;;;;;9.60;100.00;101539.50;5047303;28;20037;-63
2022/04/29 00:05:35;;;;;;;6.00;5.80;;;;;;;9.63;100.00;101536.59;5046363;28;20087;-63
2022/04/29 00:08:05;;;;;;;6.25;5.97;;;;;;;9.63;100.00;101540.06;5048666;28;20484;-63
2022/04/29 00:10:31;;;;;;;5.90;5.70;;;;;;;9.57;100.00;101540.63;5054878;28;20392;-63
2022/04/29 00:12:59;;;;;;;6.32;6.03;;;;;;;9.58;100.00;101529.06;5050956;28;20025;-63
2022/04/29 00:15:24;;;;;;;6.70;6.40;;;;;;;9.60;100.00;101529.72;5059560;28;20028;-63
2022/04/29 00:17:50;;;;;;;5.70;5.50;;;;;;;9.50;100.00;101521.00;5062281;28;20017;-64
2022/04/29 00:20:15;;;;;;;6.25;5.95;;;;;;;9.59;100.00;101520.13;5045895;28;20106;-63
2022/04/29 00:22:41;;;;;;;6.20;5.90;;;;;;;9.61;100.00;101527.91;5050919;28;20029;-63
2022/04/29 00:25:08;;;;;;;6.55;6.25;;;;;;;9.61;100.00;101527.91;5052909;28;20484;-63
2022/04/29 00:27:35;;;;;;;6.20;5.90;;;;;;;9.50;100.00;101526.28;5054701;28;20032;-63
2022/04/29 00:30:00;;;;;;;6.40;6.10;;;;;;;9.40;100.00;101528.09;5053011;28;20039;-63
2022/04/29 00:32:26;;;;;;;5.93;5.72;;;;;;;9.39;100.00;101531.72;5060080;28;20037;-64
2022/04/29 00:34:52;;;;;;;6.03;5.82;;;;;;;9.30;100.00;101532.59;5060618;28;20033;-63
2022/04/29 00:37:18;;;;;;;6.70;6.40;;;;;;;9.25;100.00;101516.28;5053374;28;20048;-63
2022/04/29 00:39:44;;;;;;;6.40;6.10;;;;;;;9.35;100.00;101533.84;5049346;28;20025;-63
2022/04/29 00:42:17;;;;;;;6.35;6.05;;;;;;;9.40;100.00;101534.25;5053164;28;20033;-63
2022/04/29 00:44:44;;;;;;;6.20;5.90;;;;;;;9.35;100.00;101539.13;5044978;28;20040;-62
2022/04/29 00:47:13;;;;;;;6.60;6.30;;;;;;;9.51;100.00;101537.72;5053849;28;20085;-63
2022/04/29 00:49:39;;;;;;;6.50;6.20;;;;;;;9.47;100.00;101544.25;5053846;28;20495;-64
2022/04/29 00:52:07;;;;;;;6.60;6.30;;;;;;;9.55;100.00;101539.13;5052741;28;20032;-62
2022/04/29 00:54:36;;;;;;;6.22;5.95;;;;;;;9.61;100.00;101549.94;5049881;28;20506;-63
2022/04/29 00:57:06;;;;;;;6.55;6.25;;;;;;;9.67;100.00;101541.44;5053794;28;20060;-64
2022/04/29 00:59:40;;;;;;;6.10;5.90;;;;;;;9.60;100.00;101548.28;5052815;28;20395;-64
2022/04/29 01:02:08;;;;;;;6.50;6.20;;;;;;;9.66;100.00;101547.72;5041333;28;20120;-64
2022/04/29 01:05:05;;;;;;;6.00;5.80;;;;;;;9.61;100.00;101542.00;5054212;28;20116;-64
2022/04/29 01:07:32;;;;;;;6.05;5.82;;;;;;;9.69;100.00;101536.84;5052191;28;20037;-63
2022/04/29 01:09:58;;;;;;;5.93;5.72;;;;;;;9.65;100.00;101529.31;5052034;28;20027;-63
2022/04/29 01:12:26;;;;;;;6.25;5.95;;;;;;;9.54;100.00;101538.25;5053999;28;20119;-62
2022/04/29 01:14:56;;;;;;;6.20;5.90;;;;;;;9.64;100.00;101527.66;5052374;28;20032;-63
2022/04/29 01:17:22;;;;;;;6.00;5.80;;;;;;;9.63;100.00;101524.16;5041480;28;20067;-63
2022/04/29 01:19:48;;;;;;;6.35;6.05;;;;;;;9.66;100.00;101523.03;5052335;28;20024;-63
2022/04/29 01:22:14;;;;;;;5.90;5.70;;;;;;;9.45;100.00;101525.03;5045057;28;20034;-63
2022/04/29 01:24:39;;;;;;;6.28;5.97;;;;;;;9.43;100.00;101522.53;5049161;28;20361;-63
2022/04/29 01:27:12;;;;;;;6.32;6.03;;;;;;;9.39;100.00;101516.69;5053241;28;20052;-62
2022/04/29 01:29:41;;;;;;;5.93;5.72;;;;;;;9.40;100.00;101518.38;5047217;28;20115;-62
2022/04/29 01:32:09;;;;;;;5.95;5.75;;;;;;;9.47;100.00;101513.31;5052428;28;20032;-63
2022/04/29 01:34:35;;;;;;;6.20;5.90;;;;;;;9.40;100.00;101520.16;5062398;28;20079;-63
2022/04/29 01:37:00;;;;;;;6.32;6.03;;;;;;;9.37;100.00;101510.69;5040552;28;20436;-64
2022/04/29 01:39:25;;;;;;;6.90;6.60;;;;;;;9.35;100.00;101514.47;5049820;28;20032;-62
2022/04/29 01:41:51;;;;;;;5.80;5.60;;;;;;;9.38;100.00;101512.38;5051524;28;20104;-62
2022/04/29 01:44:17;;;;;;;7.10;6.80;;;;;;;9.46;100.00;101510.81;5050450;28;20033;-63
2022/04/29 01:46:43;;;;;;;5.80;5.60;;;;;;;9.51;100.00;101504.13;5044650;28;20044;-63
2022/04/29 01:49:09;;;;;;;5.85;5.65;;;;;;;9.36;100.00;101514.31;5045720;28;20036;-64
2022/04/29 01:51:35;;;;;;;5.85;5.65;;;;;;;9.41;100.00;101511.25;5051797;28;20480;-62
2022/04/29 01:54:01;;;;;;;6.07;5.82;;;;;;;9.36;100.00;101502.91;5051574;28;20024;-63
2022/04/29 01:56:32;;;;;;;6.60;6.30;;;;;;;9.44;100.00;101510.13;5051231;28;20029;-63
2022/04/29 01:59:00;;;;;;;6.00;5.80;;;;;;;9.40;100.00;101506.91;5060367;28;20055;-63
2022/04/29 02:01:27;;;;;;;6.70;6.40;;;;;;;9.37;100.00;101504.56;5039546;28;20132;-64
2022/04/29 02:03:53;;;;;;;5.88;5.68;;;;;;;9.37;100.00;101504.56;5038647;28;20025;-62
2022/04/29 02:06:19;;;;;;;6.55;6.25;;;;;;;9.39;100.00;101503.44;5047934;28;20115;-63
2022/04/29 02:08:44;;;;;;;6.38;6.07;;;;;;;9.39;100.00;101499.94;5051398;28;20477;-64
2022/04/29 02:11:09;;;;;;;6.50;6.20;;;;;;;9.37;100.00;101507.22;5052266;28;20021;-63
2022/04/29 02:13:35;;;;;;;5.88;5.68;;;;;;;9.35;100.00;101488.81;5051308;28;20036;-63
2022/04/29 02:16:00;;;;;;;6.35;6.07;;;;;;;9.36;100.00;101497.59;5052413;28;20029;-63
2022/04/29 02:18:26;;;;;;;6.20;5.90;;;;;;;9.42;100.00;101499.69;5040447;28;20025;-64
2022/04/29 02:20:51;;;;;;;5.80;5.60;;;;;;;9.46;100.00;101508.16;5049812;28;20111;-63
2022/04/29 02:23:17;;;;;;;5.78;5.57;;;;;;;9.40;100.00;101489.25;5042121;28;20094;-63
2022/04/29 02:25:43;;;;;;;5.90;5.70;;;;;;;9.50;100.00;101505.09;5042909;28;20080;-63
2022/04/29 02:28:09;;;;;;;5.93;5.72;;;;;;;9.53;100.00;101504.78;5042623;28;20119;-64
2022/04/29 02:30:34;;;;;;;6.20;5.90;;;;;;;9.56;100.00;101507.19;5047524;28;20115;-63
2022/04/29 02:33:00;;;;;;;6.30;6.00;;;;;;;9.54;100.00;101503.81;5044425;28;20030;-63
2022/04/29 02:35:25;;;;;;;6.10;5.80;;;;;;;9.57;100.00;101506.19;5048952;28;20123;-64
2022/04/29 02:37:51;;;;;;;5.78;5.57;;;;;;;9.61;100.00;101506.72;5046132;28;20036;-65
2022/04/29 02:40:16;;;;;;;5.80;5.60;;;;;;;9.64;100.00;101509.09;5046444;28;20075;-63
2022/04/29 02:42:42;;;;;;;5.80;5.60;;;;;;;9.67;100.00;101509.63;5051233;28;20127;-63
2022/04/29 02:45:07;;;;;;;5.88;5.68;;;;;;;9.58;100.00;101502.56;5051237;28;20021;-64
2022/04/29 02:47:33;;;;;;;5.90;5.70;;;;;;;9.67;100.00;101514.09;5049223;28;20025;-63
2022/04/29 02:49:58;;;;;;;6.10;5.82;;;;;;;9.65;100.00;101510.78;5051788;28;20111;-63
2022/04/29 02:52:24;;;;;;;6.32;6.03;;;;;;;9.63;100.00;101510.09;5049020;28;20025;-64
2022/04/29 02:54:49;;;;;;;6.40;6.10;;;;;;;9.64;100.00;101512.59;5050724;28;20024;-64
2022/04/29 02:57:15;;;;;;;5.75;5.55;;;;;;;9.55;100.00;101518.75;5049344;28;20048;-63
2022/04/29 02:59:41;;;;;;;6.32;6.03;;;;;;;9.56;100.00;101527.53;5049927;28;20158;-64
2022/04/29 03:02:07;;;;;;;6.00;5.80;;;;;;;9.61;100.00;101520.81;5048365;28;20398;-64
2022/04/29 03:04:33;;;;;;;5.85;5.65;;;;;;;9.65;100.00;101524.00;5050554;28;20032;-64
2022/04/29 03:06:59;;;;;;;5.88;5.68;;;;;;;9.63;100.00;101523.34;5056730;28;20029;-64
2022/04/29 03:09:25;;;;;;;5.97;5.78;;;;;;;9.63;100.00;101521.53;5050394;28;20443;-64
2022/04/29 03:11:51;;;;;;;5.80;5.60;;;;;;;9.54;100.00;101527.66;5051508;28;20020;-63
2022/04/29 03:14:16;;;;;;;6.70;6.40;;;;;;;9.58;100.00;101513.16;5047320;28;20030;-63
2022/04/29 03:16:43;;;;;;;6.50;6.20;;;;;;;9.63;100.00;101534.75;5045833;28;20469;-63
2022/04/29 03:19:09;;;;;;;5.88;5.68;;;;;;;9.63;100.00;101534.75;5047091;28;20119;-63
2022/04/29 03:21:35;;;;;;;5.82;5.63;;;;;;;9.71;100.00;101538.50;5043274;28;20108;-63
2022/04/29 03:24:01;;;;;;;5.80;5.60;;;;;;;9.65;100.00;101543.41;5051727;28;20060;-64
2022/04/29 03:26:28;;;;;;;6.22;5.93;;;;;;;9.58;100.00;101544.13;5052197;28;20033;-62
2022/04/29 03:28:53;;;;;;;6.45;6.15;;;;;;;9.63;100.00;101545.34;5044167;28;20033;-63
2022/04/29 03:31:19;;;;;;;6.30;6.00;;;;;;;9.65;100.00;101545.22;5046766;28;20079;-63
2022/04/29 03:33:44;;;;;;;5.90;5.70;;;;;;;9.71;100.00;101549.09;5063614;28;20186;-63
2022/04/29 03:36:10;;;;;;;6.43;6.13;;;;;;;9.71;100.00;101557.06;5053985;28;20399;-63
2022/04/29 03:38:36;;;;;;;6.00;5.80;;;;;;;9.73;100.00;101547.13;5054634;28;20551;-63
2022/04/29 03:41:02;;;;;;;5.95;5.75;;;;;;;9.77;100.00;101559.09;5051701;28;20032;-62
2022/04/29 03:43:28;;;;;;;5.90;5.70;;;;;;;9.76;100.00;101557.44;5041022;28;20109;-63
2022/04/29 03:45:54;;;;;;;6.32;6.05;;;;;;;9.79;100.00;101559.81;5060687;28;20111;-63
2022/04/29 03:48:19;;;;;;;6.90;6.60;;;;;;;9.79;100.00;101562.47;5045544;28;20457;-63
2022/04/29 03:50:45;;;;;;;6.97;6.68;;;;;;;9.79;100.00;101563.31;5049059;28;20033;-63
2022/04/29 03:53:11;;;;;;;6.47;6.18;;;;;;;9.79;100.00;101568.59;5059434;28;20111;-64
2022/04/29 03:55:36;;;;;;;6.90;6.60;;;;;;;9.81;100.00;101563.97;5050118;28;20052;-63
2022/04/29 03:58:02;;;;;;;7.45;7.15;;;;;;;9.84;100.00;101571.66;5040233;28;20053;-63
2022/04/29 04:00:31;;;;;;;6.45;6.15;;;;;;;9.74;100.00;101570.84;5042600;28;20047;-63
2022/04/29 04:03:00;;;;;;;7.78;7.38;;;;;;;9.75;100.00;101576.97;5039616;28;20057;-64
2022/04/29 04:05:26;;;;;;;6.82;6.53;;;;;;;9.80;100.00;101575.56;5044643;28;20492;-63
2022/04/29 04:07:52;;;;;;;6.82;6.53;;;;;;;9.77;100.00;101567.06;5049346;28;20032;-63
2022/04/29 04:10:18;;;;;;;7.20;6.90;;;;;;;9.79;100.00;101573.06;5045966;28;20032;-63
2022/04/29 04:12:48;;;;;;;7.00;6.70;;;;;;;9.82;100.00;101580.72;5059124;28;20560;-64
2022/04/29 04:15:15;;;;;;;8.55;8.15;;;;;;;9.89;100.00;101581.81;5041420;28;20033;-63
2022/04/29 04:17:41;;;;;;;6.47;6.18;;;;;;;9.81;100.00;101581.69;5048117;28;20500;-63
2022/04/29 04:20:08;;;;;;;6.97;6.68;;;;;;;9.98;100.00;101579.13;5048754;28;20060;-63
2022/04/29 04:22:37;;;;;;;6.63;6.32;;;;;;;9.86;100.00;101579.47;5054681;28;20024;-63
2022/04/29 04:25:04;;;;;;;6.60;6.30;;;;;;;9.87;100.00;101578.47;5058226;28;20472;-63
2022/04/29 04:27:30;;;;;;;7.70;7.35;;;;;;;9.95;100.00;101583.88;5048813;28;20484;-62
2022/04/29 04:29:57;;;;;;;6.75;6.45;;;;;;;9.97;100.00;101587.22;5048867;28;20035;-64
2022/04/29 04:32:22;;;;;;;7.07;6.78;;;;;;;10.04;100.00;101592.78;5054934;28;20029;-63
2022/04/29 04:34:51;;;;;;;6.50;6.20;;;;;;;10.04;100.00;101583.00;5061235;28;20101;-63
2022/04/29 04:37:27;;;;;;;6.30;6.00;;;;;;;9.93;100.00;101594.66;5053762;28;20029;-63
2022/04/29 04:39:53;;;;;;;7.65;7.28;;;;;;;9.80;100.00;101596.75;5036947;28;20025;-63
2022/04/29 04:42:19;;;;;;;7.38;7.07;;;;;;;10.09;100.00;101587.91;5062854;28;20059;-64
2022/04/29 04:44:49;;;;;;;6.90;6.60;;;;;;;9.97;100.00;101597.81;5050340;28;20026;-63
2022/04/29 04:47:16;;;;;;;6.97;6.68;;;;;;;10.00;100.00;101597.56;5049206;28;20464;-63
2022/04/29 04:49:41;;;;;;;5.90;5.70;;;;;;;10.01;100.00;101601.88;5048076;28;20033;-64
2022/04/29 04:52:08;;;;;;;7.15;6.85;;;;;;;9.94;100.00;101600.78;5045858;28;20400;-64
2022/04/29 04:54:34;;;;;;;6.68;6.38;;;;;;;9.71;100.00;101597.63;5052545;28;20060;-64
2022/04/29 04:57:00;;;;;;;6.85;6.55;;;;;;;9.73;100.00;101603.63;5038786;28;20049;-64
2022/04/29 04:59:25;;;;;;;6.32;6.03;;;;;;;9.75;100.00;101598.16;5051087;28;20025;-64
2022/04/29 05:01:51;;;;;;;6.65;6.35;;;;;;;9.67;100.00;101610.31;5053177;28;20032;-65
2022/04/29 05:04:16;;;;;;;7.05;6.75;;;;;;;9.76;100.00;101599.84;5055080;28;20017;-63
2022/04/29 05:06:42;;;;;;;6.50;6.20;;;;;;;9.81;100.00;101600.25;5056300;28;20515;-65
2022/04/29 05:09:08;;;;;;;6.60;6.30;;;;;;;9.81;100.00;101605.56;5053589;28;20032;-64
2022/04/29 05:11:34;;;;;;;6.47;6.18;;;;;;;9.90;100.00;101607.34;5051772;28;20475;-64
2022/04/29 05:13:59;;;;;;;6.07;5.88;;;;;;;9.95;100.00;101602.44;5061783;28;20095;-65
2022/04/29 05:16:26;;;;;;;6.80;6.50;;;;;;;9.79;100.00;101608.34;5051649;28;20468;-65
2022/04/29 05:18:51;;;;;;;6.20;5.90;;;;;;;9.78;100.00;101603.19;5059998;28;20507;-64
2022/04/29 05:21:17;;;;;;;6.85;6.55;;;;;;;9.97;100.00;101609.25;5049718;28;20032;-64
2022/04/29 05:23:43;;;;;;;6.40;6.10;;;;;;;10.05;100.00;101602.41;5061792;28;20142;-65
2022/04/29 05:26:09;;;;;;;6.88;6.57;;;;;;;9.89;100.00;101609.16;5046481;28;20036;-66
2022/04/29 05:28:34;;;;;;;7.80;7.40;;;;;;;9.74;100.00;101602.63;5053607;28;20039;-72
2022/04/29 05:31:01;;;;;;;6.30;6.00;;;;;;;10.12;100.00;101612.28;5055854;28;20040;-69
2022/04/29 05:33:27;;;;;;;6.60;6.30;;;;;;;10.21;100.00;101607.94;5054048;28;20032;-66
2022/04/29 05:35:52;;;;;;;6.95;6.65;;;;;;;10.26;100.00;101615.47;5046827;28;20032;-65
2022/04/29 05:38:19;;;;;;;6.75;6.45;;;;;;;10.42;100.00;101611.22;5060690;28;20549;-65
2022/04/29 05:43:29;;;;;;;6.30;6.00;;;;;;;10.36;100.00;101617.13;5048569;28;20117;-66
2022/04/29 05:45:54;;;;;;;6.55;6.25;;;;;;;10.58;100.00;101625.69;5054014;28;20136;-66
2022/04/29 05:48:20;;;;;;;6.20;5.93;;;;;;;10.37;100.00;101620.63;5052206;28;20036;-66
2022/04/29 05:50:46;;;;;;;6.75;6.45;;;;;;;10.55;100.00;101623.31;5052674;28;20029;-66
2022/04/29 05:53:12;;;;;;;6.60;6.30;;;;;;;10.76;100.00;101624.72;5053510;28;20210;-66
2022/04/29 05:55:38;;;;;;;6.88;6.57;;;;;;;10.82;100.00;101627.78;5049867;28;20126;-66
2022/04/29 05:58:04;;;;;;;6.70;6.40;;;;;;;10.66;100.00;101628.44;5045047;28;20041;-68
2022/04/29 06:00:29;;;;;;;8.40;8.00;;;;;;;10.74;100.00;101628.53;5046921;28;20021;-68
2022/04/29 06:02:55;;;;;;;7.47;7.18;;;;;;;10.72;100.00;101635.78;5057346;28;20030;-66
2022/04/29 06:05:21;;;;;;;7.15;6.85;;;;;;;10.82;100.00;101631.25;5051964;28;20029;-65
2022/04/29 06:07:48;;;;;;;7.20;6.90;;;;;;;11.10;100.00;101639.19;5048237;28;20202;-72
2022/04/29 06:10:14;;;;;;;7.28;6.97;;;;;;;11.22;100.00;101637.97;5048868;28;20028;-66
2022/04/29 06:12:40;;;;;;;6.72;6.43;;;;;;;10.36;100.00;101641.00;5055534;28;20025;-64
2022/04/29 06:15:07;;;;;;;8.13;7.72;;;;;;;10.82;100.00;101635.72;5048494;28;20025;-66
2022/04/29 06:17:32;;;;;;;6.30;6.00;;;;;;;10.87;100.00;101642.28;5049376;28;20479;-66
2022/04/29 06:19:58;;;;;;;6.45;6.15;;;;;;;10.94;100.00;101645.13;5049259;28;20113;-64
2022/04/29 06:22:24;;;;;;;6.95;6.65;;;;;;;10.41;100.00;101638.72;5049365;28;20044;-63
2022/04/29 06:24:50;;;;;;;7.20;6.90;;;;;;;10.93;100.00;101646.97;5042835;28;20109;-64
2022/04/29 06:27:16;;;;;;;7.10;6.80;;;;;;;10.97;100.00;101653.66;5054978;28;20048;-63
2022/04/29 06:29:41;;;;;;;6.47;6.18;;;;;;;10.87;100.00;101652.91;5053685;28;20055;-62
2022/04/29 06:32:07;;;;;;;8.07;7.68;;;;;;;10.46;100.00;101652.41;5047044;28;20029;-62
2022/04/29 06:34:33;;;;;;;6.40;6.10;;;;;;;10.86;100.00;101660.97;5049878;28;20082;-62
2022/04/29 06:36:59;;;;;;;6.97;6.68;;;;;;;10.79;100.00;101645.66;5045372;28;20520;-63
2022/04/29 06:39:24;;;;;;;6.90;6.60;;;;;;;10.82;100.00;101663.13;5044837;28;20162;-63
2022/04/29 06:41:50;;;;;;;7.35;7.05;;;;;;;11.19;100.00;101659.53;5047872;28;20033;-63
2022/04/29 06:44:15;;;;;;;6.78;6.47;;;;;;;10.65;100.00;101664.75;5049320;28;20478;-63
2022/04/29 06:46:41;;;;;;;6.53;6.22;;;;;;;10.44;100.00;101664.13;5052086;28;20410;-64
2022/04/29 06:49:08;;;;;;;6.68;6.38;;;;;;;10.57;100.00;101664.63;5053364;28;20036;-64
2022/04/29 06:51:35;;;;;;;6.80;6.50;;;;;;;10.65;100.00;101670.06;5051879;28;20024;-64
2022/04/29 06:54:00;;;;;;;6.40;6.10;;;;;;;10.27;100.00;101672.84;5044194;28;20024;-62
2022/04/29 06:56:26;;;;;;;6.53;6.22;;;;;;;10.53;100.00;101663.25;5045500;28;20415;-63
2022/04/29 06:58:53;;;;;;;6.95;6.65;;;;;;;10.54;100.00;101670.22;5056650;28;20060;-63
2022/04/29 07:01:18;;;;;;;6.28;5.97;;;;;;;10.74;100.00;101670.97;5048543;28;20566;-63
2022/04/29 07:03:44;;;;;;;6.60;6.30;;;;;;;10.36;100.00;101678.13;5063655;28;20108;-63
2022/04/29 07:06:10;;;;;;;6.30;6.00;;;;;;;10.74;100.00;101676.28;5051114;28;20029;-63
2022/04/29 07:08:35;;;;;;;6.53;6.22;;;;;;;10.84;100.00;101677.06;5051943;28;20025;-62
2022/04/29 07:11:01;;;;;;;6.60;6.30;;;;;;;10.94;100.00;101675.22;5061823;28;20036;-64
2022/04/29 07:13:27;;;;;;;6.38;6.07;;;;;;;10.85;100.00;101680.56;5048522;28;20041;-63
2022/04/29 07:15:53;;;;;;;6.30;6.00;;;;;;;11.01;100.00;101686.03;5050105;28;20116;-63
2022/04/29 07:18:18;;;;;;;6.65;6.35;;;;;;;11.02;100.00;101688.56;5048783;28;20116;-62
2022/04/29 07:20:44;;;;;;;6.75;6.45;;;;;;;10.98;100.00;101681.88;5047945;28;20033;-64
2022/04/29 07:23:09;;;;;;;6.60;6.30;;;;;;;11.05;100.00;101684.78;5056823;28;20100;-63
2022/04/29 07:25:35;;;;;;;6.40;6.10;;;;;;;11.17;100.00;101699.53;5052102;28;20024;-63
2022/04/29 07:28:00;;;;;;;6.80;6.50;;;;;;;11.19;100.00;101692.22;5048213;28;20459;-63
2022/04/29 07:30:26;;;;;;;6.95;6.65;;;;;;;11.23;100.00;101695.41;5054522;28;20039;-62
2022/04/29 07:32:53;;;;;;;6.18;5.90;;;;;;;11.22;100.00;101696.41;5051822;28;20032;-62
2022/04/29 07:43:31;;;;;;;6.68;6.38;;;;;;;11.25;100.00;101704.91;5040384;28;19993;-63
2022/04/29 07:45:58;;;;;;;6.90;6.60;;;;;;;10.99;100.00;101707.44;5047400;28;20075;-63
2022/04/29 07:48:24;;;;;;;6.47;6.18;;;;;;;10.96;100.00;101705.09;5054836;28;20029;-64
2022/04/29 07:50:50;;;;;;;6.82;6.53;;;;;;;10.84;100.00;101708.91;5052165;28;20052;-63
2022/04/29 07:53:16;;;;;;;6.70;6.40;;;;;;;11.06;100.00;101707.69;5065485;28;20029;-62
2022/04/29 07:55:41;;;;;;;6.38;6.07;;;;;;;10.89;100.00;101711.13;5049039;28;20547;-63
2022/04/29 07:58:07;;;;;;;6.63;6.32;;;;;;;10.94;100.00;101708.84;5045082;28;20049;-65
2022/04/29 08:00:32;;;;;;;7.53;7.22;;;;;;;11.10;100.00;101711.72;5054664;28;20037;-63
2022/04/29 08:03:01;;;;;;;7.07;6.78;;;;;;;10.90;100.00;101692.41;5053527;28;20025;-65
2022/04/29 08:05:27;;;;;;;6.90;6.60;;;;;;;10.92;100.00;101700.22;5051789;28;20036;-63
2022/04/29 08:07:55;;;;;;;6.95;6.65;;;;;;;10.78;100.00;101697.06;5055522;28;20384;-64
2022/04/29 08:10:22;;;;;;;6.50;6.20;;;;;;;11.21;100.00;101706.19;5046607;28;20032;-63
2022/04/29 08:12:47;;;;;;;7.22;6.93;;;;;;;11.33;100.00;101704.16;5062782;28;20104;-64
2022/04/29 08:15:13;;;;;;;6.75;6.45;;;;;;;11.01;100.00;101705.47;5052845;28;20116;-64
2022/04/29 08:17:39;;;;;;;7.38;7.07;;;;;;;11.23;100.00;101714.81;5055005;28;20051;-64
2022/04/29 08:20:08;;;;;;;6.72;6.43;;;;;;;11.04;100.00;101710.50;5053605;28;20041;-63
2022/04/29 08:22:34;;;;;;;6.60;6.30;;;;;;;11.29;100.00;101708.91;5059064;28;20037;-64
2022/04/29 08:25:00;;;;;;;6.78;6.47;;;;;;;11.00;100.00;101705.63;5042258;28;20028;-65
2022/04/29 08:27:27;;;;;;;6.65;6.35;;;;;;;11.45;100.00;101702.09;5056537;28;20084;-64
2022/04/29 08:29:52;;;;;;;7.43;7.13;;;;;;;11.59;100.00;101706.88;5053248;28;20502;-64
2022/04/29 08:32:18;;;;;;;6.57;6.28;;;;;;;11.67;100.00;101709.59;5061346;28;20111;-64
2022/04/29 08:34:44;;;;;;;6.07;5.88;;;;;;;12.00;100.00;101709.91;5054137;28;20548;-64
2022/04/29 08:37:10;;;;;;;6.95;6.65;;;;;;;11.91;100.00;101703.72;5052082;28;20026;-62
2022/04/29 08:39:35;;;;;;;6.57;6.28;;;;;;;11.98;100.00;101710.09;5042869;28;20102;-65
2022/04/29 08:42:02;;;;;;;6.35;6.05;;;;;;;11.35;100.00;101703.00;5057587;28;20159;-65
2022/04/29 08:44:31;;;;;;;6.60;6.30;;;;;;;11.71;100.00;101708.34;5053797;28;20629;-64
2022/04/29 08:46:58;;;;;;;6.47;6.18;;;;;;;11.71;100.00;101711.00;5054547;28;20040;-65
2022/04/29 08:49:25;;;;;;;6.43;6.13;;;;;;;11.57;100.00;101707.03;5054319;28;20040;-65
2022/04/29 08:51:51;;;;;;;6.40;6.10;;;;;;;11.50;100.00;101710.47;5057762;28;20021;-65
2022/04/29 09:00:04;;;;;;;6.40;6.10;;;;;;;11.74;100.00;101705.34;5051403;28;20400;-64
2022/04/29 09:02:38;;;;;;;7.22;6.93;;;;;;;11.69;100.00;101698.84;5049139;28;20489;-65
2022/04/29 09:05:07;;;;;;;7.18;6.88;;;;;;;12.07;100.00;101701.16;5051429;28;20108;-65
2022/04/29 09:07:56;;;;;;;6.70;6.40;;;;;;;12.10;100.00;101695.53;5053816;28;20411;-64
2022/04/29 09:10:24;;;;;;;7.18;6.88;;;;;;;12.15;100.00;101697.72;5050462;28;20037;-64
2022/04/29 09:12:50;;;;;;;6.78;6.47;;;;;;;12.29;100.00;101696.31;5062838;28;20021;-64
2022/04/29 09:15:16;;;;;;;8.15;7.75;;;;;;;12.40;100.00;101706.69;5064087;28;20020;-65
2022/04/29 09:17:46;;;;;;;7.15;6.85;;;;;;;11.81;100.00;101701.13;5045690;28;20087;-65
2022/04/29 09:20:19;;;;;;;6.40;6.10;;;;;;;12.13;100.00;101707.69;5055229;28;20021;-65
2022/04/29 09:22:47;;;;;;;6.35;6.05;;;;;;;12.32;100.00;101711.97;5051668;28;20493;-65
2022/04/29 09:25:13;;;;;;;7.40;7.10;;;;;;;11.91;100.00;101703.72;5056221;28;20039;-64
2022/04/29 09:28:08;;;;;;;7.30;7.00;;;;;;;11.72;100.00;101702.03;5047229;28;20044;-62
2022/04/29 09:30:35;;;;;;;;;;;;;;;11.92;100.00;101704.53;5041382;28;20091;-64
2022/04/29 09:33:01;;;;;;;7.00;6.70;;;;;;;12.42;100.00;101705.56;5053803;28;20327;-65
2022/04/29 09:35:37;;;;;;;6.07;5.88;;;;;;;12.24;100.00;101701.25;5057534;28;20029;-65
2022/04/29 09:40:47;;;;;;;;;;;;;;;12.09;100.00;101712.47;5053070;28;20174;-64
2022/04/29 09:43:13;;;;;;;6.90;6.60;;;;;;;11.87;100.00;101710.31;5050793;28;19999;-65
2022/04/29 09:45:38;;;;;;;6.72;6.43;;;;;;;11.65;100.00;101710.75;5042580;28;20349;-63
2022/04/29 09:48:09;;;;;;;6.60;6.30;;;;;;;11.93;100.00;101700.91;5054282;28;20040;-65
2022/04/29 09:50:44;;;;;;;6.57;6.28;;;;;;;12.29;100.00;101702.47;5048986;28;20035;-66
2022/04/29 09:53:35;;;;;;;7.28;6.97;;;;;;;12.39;100.00;101699.69;5049021;28;20495;-62
2022/04/29 09:56:10;;;;;;;7.32;7.03;;;;;;;11.52;100.00;101697.84;5045144;28;20072;-62
2022/04/29 09:58:35;;;;;;;;;;;;;;;11.17;100.00;101704.00;5050246;28;20447;-63
2022/04/29 10:01:04;;;;;;;7.10;6.80;;;;;;;11.60;100.00;101700.56;5058628;28;19917;-64
2022/04/29 10:03:30;;;;;;;6.95;6.65;;;;;;;11.45;100.00;101686.16;5059363;28;20098;-63
2022/04/29 10:05:57;;;;;;;7.10;6.80;;;;;;;11.79;100.00;101695.09;5066433;28;20107;-63
2022/04/29 10:08:25;;;;;;;7.50;7.20;;;;;;;12.01;100.00;101693.81;5058448;28;20037;-63
2022/04/29 10:10:53;;;;;;;6.90;6.60;;;;;;;12.16;100.00;101696.72;5045498;28;20078;-63
2022/04/29 10:13:21;;;;;;;7.90;7.53;;;;;;;12.11;100.00;101701.69;5061716;28;20029;-64
2022/04/29 10:15:47;;;;;;;6.70;6.40;;;;;;;12.64;100.00;101698.00;5048983;28;20033;-63
2022/04/29 10:21:17;;;;;;;6.60;6.30;;;;;;;13.25;100.00;101705.72;5049477;28;20467;-63
2022/04/29 10:23:50;;;;;;;6.80;6.50;;;;;;;13.17;100.00;101699.53;5063187;28;20112;-62
2022/04/29 10:26:18;;;;;;;8.20;7.80;;;;;;;12.93;100.00;101702.97;5048809;28;20036;-63
2022/04/29 10:28:45;;;;;;;6.85;6.55;;;;;;;12.83;100.00;101695.06;5056879;28;20052;-63
2022/04/29 10:31:16;;;;;;;7.32;7.03;;;;;;;12.13;100.00;101694.41;5062563;28;20028;-63
2022/04/29 10:33:42;;;;;;;6.78;6.47;;;;;;;12.31;100.00;101689.84;5043329;28;20518;-63
2022/04/29 10:36:10;;;;;;;6.70;6.40;;;;;;;12.50;100.00;101691.44;5048203;28;20123;-61
2022/04/29 10:38:40;;;;;;;7.20;6.90;;;;;;;12.51;100.00;101697.59;5057053;28;21547;-62
2022/04/29 10:41:15;;;;;;;6.47;6.18;;;;;;;12.59;100.00;101692.31;5063883;28;20033;-63
2022/04/29 10:43:55;;;;;;;7.80;7.45;;;;;;;13.05;100.00;101688.31;5053399;28;20033;-63
2022/04/29 10:46:29;;;;;;;6.90;6.60;;;;;;;13.55;100.00;101693.59;5054215;28;20025;-63
2022/04/29 10:48:55;;;;;;;6.95;6.65;;;;;;;13.89;100.00;101689.94;5046471;28;20044;-62
2022/04/29 10:51:21;;;;;;;6.93;6.63;;;;;;;14.25;100.00;101687.75;5048703;28;20032;-61
2022/04/29 10:53:49;;;;;;;7.25;6.95;;;;;;;14.64;100.00;101682.47;5043321;28;20035;-61
2022/04/29 10:56:30;;;;;;;7.45;7.15;;;;;;;15.30;100.00;101682.13;5057032;28;20028;-63
2022/04/29 10:59:04;;;;;;;6.70;6.40;;;;;;;14.90;100.00;101686.69;5052813;28;20044;-61
2022/04/29 11:01:34;;;;;;;6.93;6.63;;;;;;;14.30;100.00;101672.03;5056240;28;20124;-62
2022/04/29 11:04:26;;;;;;;6.80;6.50;;;;;;;13.97;100.00;101681.94;5045433;28;20549;-63
2022/04/29 11:06:52;;;;;;;6.97;6.68;;;;;;;14.05;100.00;101676.59;5056085;28;20040;-63
2022/04/29 11:09:25;;;;;;;6.70;6.40;;;;;;;13.64;100.00;101685.63;5052559;28;20093;-61
2022/04/29 11:11:51;;;;;;;6.63;6.32;;;;;;;14.35;100.00;101687.53;5051215;28;20477;-62
2022/04/29 11:14:17;;;;;;;6.95;6.65;;;;;;;13.80;100.00;101689.09;5049741;28;20028;-62
2022/04/29 11:16:52;;;;;;;6.60;6.30;;;;;;;14.02;100.00;101695.59;5055673;28;20546;-62
2022/04/29 11:19:28;;;;;;;6.80;6.50;;;;;;;13.86;100.00;101695.59;5052957;28;20500;-62
2022/04/29 11:24:45;;;;;;;6.70;6.40;;;;;;;14.29;100.00;101685.53;5064792;28;20120;-62
2022/04/29 11:27:11;;;;;;;6.72;6.43;;;;;;;14.14;100.00;101681.91;5041193;28;20032;-63
2022/04/29 11:29:44;;;;;;;6.80;6.50;;;;;;;14.25;100.00;101686.91;5056092;28;20594;-62
2022/04/29 11:32:12;;;;;;;6.97;6.68;;;;;;;14.27;100.00;101684.88;5058057;28;20035;-62
2022/04/29 11:34:57;;;;;;;7.07;6.78;;;;;;;13.68;100.00;101679.78;5055862;28;20025;-63
2022/04/29 11:37:33;;;;;;;6.70;6.40;;;;;;;13.86;100.00;101682.28;5055339;28;20022;-62
2022/04/29 11:40:07;;;;;;;6.80;6.50;;;;;;;13.79;100.00;101673.28;5065814;28;20033;-62
2022/04/29 11:42:33;;;;;;;6.88;6.57;;;;;;;14.36;100.00;101667.84;5049453;28;20489;-63
2022/04/29 11:45:09;;;;;;;6.68;6.38;;;;;;;14.01;100.00;101666.41;5058545;28;20024;-63
2022/04/29 11:47:36;;;;;;;6.93;6.63;;;;;;;14.35;100.00;101656.34;5069708;28;20033;-61